createdAt,value
2019-06-26T00:00:24.201Z,99.90
2019-06-26T00:02:56.402Z,99.90
2019-06-26T00:05:28.548Z,99.90
2019-06-26T00:08:00.801Z,99.90
2019-06-26T00:10:33.346Z,99.90
2019-06-26T00:13:05.505Z,99.90
2019-06-26T00:15:37.681Z,99.90
2019-06-26T00:18:09.883Z,99.90
2019-06-26T00:20:41.942Z,99.90
2019-06-26T00:23:14.181Z,99.90
2019-06-26T00:25:46.392Z,99.90
2019-06-26T00:28:18.419Z,99.90
2019-06-26T00:30:50.623Z,99.90
2019-06-26T00:33:22.870Z,99.90
2019-06-26T00:35:54.882Z,99.90
2019-06-26T00:38:27.034Z,99.90
2019-06-26T00:40:59.144Z,99.90
2019-06-26T00:43:41.898Z,99.90
2019-06-26T00:46:05.190Z,99.90
2019-06-26T00:48:38.303Z,99.90
2019-06-26T00:51:10.395Z,99.90
2019-06-26T00:53:42.448Z,99.90
2019-06-26T00:56:14.454Z,99.90
2019-06-26T00:58:46.586Z,99.90
2019-06-26T01:01:18.708Z,99.90
2019-06-26T01:03:53.726Z,99.90
2019-06-26T01:06:43.874Z,99.90
2019-06-26T01:09:16.637Z,99.90
2019-06-26T01:11:49.955Z,99.90
2019-06-26T01:14:21.958Z,99.90
2019-06-26T01:16:54.268Z,99.90
2019-06-26T01:19:26.498Z,99.90
2019-06-26T01:21:59.686Z,99.90
2019-06-26T01:24:31.735Z,99.90
2019-06-26T01:27:03.894Z,99.90
2019-06-26T01:29:35.963Z,99.90
2019-06-26T01:32:08.047Z,99.90
2019-06-26T01:34:40.169Z,99.90
2019-06-26T01:37:12.352Z,99.90
2019-06-26T01:39:44.359Z,99.90
2019-06-26T01:42:16.385Z,99.90
2019-06-26T01:44:48.473Z,99.90
2019-06-26T01:47:20.484Z,99.90
2019-06-26T01:49:52.557Z,99.90
2019-06-26T01:52:24.657Z,99.90
2019-06-26T01:54:56.687Z,99.90
2019-06-26T01:57:28.762Z,99.90
2019-06-26T02:00:01.900Z,99.90
2019-06-26T02:02:35.381Z,99.90
2019-06-26T02:05:08.300Z,99.90
2019-06-26T02:07:40.511Z,99.90
2019-06-26T02:10:13.169Z,99.90
2019-06-26T02:12:45.271Z,99.90
2019-06-26T02:15:17.725Z,99.90
2019-06-26T02:17:49.838Z,99.90
2019-06-26T02:20:22.000Z,99.90
2019-06-26T02:22:54.038Z,99.90
2019-06-26T02:25:26.260Z,99.90
2019-06-26T02:27:59.316Z,99.90
2019-06-26T02:33:35.190Z,99.90
2019-06-26T02:36:10.547Z,99.90
2019-06-26T02:38:42.868Z,99.90
2019-06-26T02:41:15.148Z,99.90
2019-06-26T02:43:48.398Z,99.90
2019-06-26T02:46:20.742Z,99.90
2019-06-26T02:48:52.951Z,99.90
2019-06-26T02:51:25.178Z,99.90
2019-06-26T02:53:57.411Z,99.90
2019-06-26T02:56:29.764Z,99.90
2019-06-26T02:59:01.807Z,99.90
2019-06-26T03:01:34.787Z,99.90
2019-06-26T03:04:08.547Z,99.90
2019-06-26T03:06:40.737Z,99.90
2019-06-26T03:09:12.842Z,99.90
2019-06-26T03:11:44.945Z,99.90
2019-06-26T03:14:17.082Z,99.90
2019-06-26T03:16:50.193Z,99.90
2019-06-26T03:19:22.201Z,99.90
2019-06-26T03:21:54.296Z,99.90
2019-06-26T03:24:26.435Z,99.90
2019-06-26T03:26:58.574Z,99.90
2019-06-26T03:29:30.607Z,99.90
2019-06-26T03:32:02.738Z,99.90
2019-06-26T03:34:34.794Z,99.90
2019-06-26T03:37:06.981Z,99.90
2019-06-26T03:39:39.189Z,99.90
2019-06-26T03:42:11.375Z,99.90
2019-06-26T03:44:43.671Z,99.90
2019-06-26T03:47:15.769Z,99.90
2019-06-26T03:49:47.903Z,99.90
2019-06-26T03:52:19.978Z,99.90
2019-06-26T03:54:52.047Z,99.90
2019-06-26T03:57:24.276Z,99.90
2019-06-26T03:59:56.462Z,99.90
2019-06-26T04:02:28.448Z,99.90
2019-06-26T04:05:01.761Z,99.90
2019-06-26T04:07:33.905Z,99.90
2019-06-26T04:10:06.658Z,99.90
2019-06-26T04:12:38.959Z,99.90
2019-06-26T04:15:11.347Z,99.90
2019-06-26T04:17:43.395Z,99.90
2019-06-26T04:20:15.984Z,99.90
2019-06-26T04:22:48.253Z,99.90
2019-06-26T04:25:20.350Z,99.90
2019-06-26T04:27:52.708Z,99.90
2019-06-26T04:30:25.039Z,99.90
2019-06-26T04:32:57.143Z,99.90
2019-06-26T04:35:29.416Z,99.90
2019-06-26T04:38:02.056Z,99.90
2019-06-26T04:40:34.220Z,99.90
2019-06-26T04:43:06.355Z,99.90
2019-06-26T04:45:38.499Z,99.90
2019-06-26T04:48:10.584Z,99.90
2019-06-26T04:50:43.105Z,99.90
2019-06-26T04:53:15.237Z,99.90
2019-06-26T04:55:47.277Z,99.90
2019-06-26T04:58:19.428Z,99.90
2019-06-26T05:00:51.643Z,99.90
2019-06-26T05:03:23.820Z,99.90
2019-06-26T05:05:56.861Z,99.90
2019-06-26T05:08:29.322Z,99.90
2019-06-26T05:11:01.405Z,99.90
2019-06-26T05:13:33.545Z,99.90
2019-06-26T05:16:14.959Z,99.90
2019-06-26T05:18:39.336Z,99.90
2019-06-26T05:21:11.498Z,99.90
2019-06-26T05:23:43.740Z,99.90
2019-06-26T05:26:15.774Z,99.90
2019-06-26T05:28:47.787Z,99.90
2019-06-26T05:31:19.771Z,99.90
2019-06-26T05:33:51.906Z,99.90
2019-06-26T05:36:24.071Z,99.90
2019-06-26T05:38:56.232Z,99.90
2019-06-26T05:41:28.459Z,99.90
2019-06-26T05:44:00.474Z,99.90
2019-06-26T05:46:32.374Z,99.90
2019-06-26T05:49:05.474Z,99.90
2019-06-26T05:51:39.640Z,99.90
2019-06-26T05:54:11.866Z,99.90
2019-06-26T05:56:45.403Z,99.90
2019-06-26T05:59:17.696Z,99.90
2019-06-26T06:01:49.897Z,99.90
2019-06-26T06:04:22.038Z,99.90
2019-06-26T06:06:54.131Z,99.90
2019-06-26T06:09:26.312Z,99.90
2019-06-26T06:11:58.532Z,99.90
2019-06-26T06:14:30.646Z,99.90
2019-06-26T06:17:02.786Z,99.90
2019-06-26T06:19:34.873Z,99.90
2019-06-26T06:22:07.043Z,99.90
2019-06-26T06:24:40.569Z,99.90
2019-06-26T06:27:12.603Z,99.90
2019-06-26T06:29:44.638Z,99.90
2019-06-26T06:32:16.713Z,99.90
2019-06-26T06:34:49.853Z,99.90
2019-06-26T06:37:21.938Z,99.90
2019-06-26T06:39:54.063Z,99.90
2019-06-26T06:42:26.262Z,99.90
2019-06-26T06:44:58.540Z,99.90
2019-06-26T06:47:30.755Z,99.90
2019-06-26T06:50:03.039Z,99.90
2019-06-26T06:52:35.203Z,99.90
2019-06-26T06:55:07.752Z,99.90
2019-06-26T06:57:39.787Z,99.90
2019-06-26T07:00:12.218Z,99.90
2019-06-26T07:02:44.407Z,99.90
2019-06-26T07:05:16.405Z,99.90
2019-06-26T07:07:48.537Z,99.90
2019-06-26T07:10:20.657Z,99.90
2019-06-26T07:12:52.746Z,99.90
2019-06-26T07:15:25.118Z,99.90
2019-06-26T07:17:57.285Z,99.90
2019-06-26T07:20:29.356Z,99.90
2019-06-26T07:23:01.535Z,99.90
2019-06-26T07:25:33.622Z,99.90
2019-06-26T07:28:05.704Z,99.90
2019-06-26T07:30:37.693Z,99.90
2019-06-26T07:33:09.917Z,99.90
2019-06-26T07:35:42.050Z,99.90
2019-06-26T07:38:14.257Z,99.90
2019-06-26T07:40:46.429Z,99.90
2019-06-26T07:43:18.567Z,99.90
2019-06-26T07:45:50.693Z,99.90
2019-06-26T07:48:22.819Z,99.90
2019-06-26T07:50:56.066Z,99.90
2019-06-26T07:53:28.215Z,99.90
2019-06-26T07:56:00.392Z,99.90
2019-06-26T07:58:32.572Z,99.90
2019-06-26T08:01:04.711Z,99.90
2019-06-26T08:03:36.768Z,99.90
2019-06-26T08:06:08.932Z,99.90
2019-06-26T08:08:41.062Z,99.90
2019-06-26T08:11:13.241Z,99.90
2019-06-26T08:13:45.357Z,99.90
2019-06-26T08:16:17.318Z,99.90
2019-06-26T08:18:50.547Z,99.90
2019-06-26T08:21:22.776Z,99.90
2019-06-26T08:23:54.906Z,99.90
2019-06-26T08:26:26.783Z,99.90
2019-06-26T08:28:59.263Z,99.90
2019-06-26T08:31:31.282Z,99.90
2019-06-26T08:34:03.357Z,99.90
2019-06-26T08:36:35.448Z,99.90
2019-06-26T08:39:08.389Z,99.90
2019-06-26T08:41:40.443Z,99.90
2019-06-26T08:44:12.420Z,99.90
2019-06-26T08:46:44.419Z,99.90
2019-06-26T08:49:25.648Z,99.90
2019-06-26T08:51:50.034Z,99.90
2019-06-26T08:54:22.170Z,99.90
2019-06-26T08:56:54.214Z,99.90
2019-06-26T08:59:26.285Z,99.90
2019-06-26T09:01:58.375Z,99.90
2019-06-26T09:04:30.470Z,99.90
2019-06-26T09:07:02.399Z,99.90
2019-06-26T09:09:34.458Z,99.90
2019-06-26T09:12:06.677Z,99.90
2019-06-26T09:14:38.684Z,99.90
2019-06-26T09:17:10.696Z,99.90
2019-06-26T09:19:42.633Z,99.90
2019-06-26T09:22:14.464Z,99.90
2019-06-26T09:24:46.468Z,99.90
2019-06-26T09:27:18.521Z,99.90
2019-06-26T09:29:50.445Z,99.90
2019-06-26T09:32:22.664Z,99.90
2019-06-26T09:34:54.648Z,99.90
2019-06-26T09:37:26.466Z,99.90
2019-06-26T09:39:58.517Z,99.90
2019-06-26T09:42:30.714Z,99.90
2019-06-26T09:45:03.323Z,99.90
2019-06-26T09:47:35.267Z,99.90
2019-06-26T09:50:07.521Z,99.90
2019-06-26T09:52:38.441Z,99.90
2019-06-26T09:55:10.607Z,99.90
2019-06-26T09:57:42.684Z,99.90
2019-06-26T10:00:15.789Z,99.90
2019-06-26T10:02:47.860Z,99.90
2019-06-26T10:05:21.133Z,99.90
2019-06-26T10:07:53.117Z,99.90
2019-06-26T10:10:26.430Z,99.90
2019-06-26T10:12:58.547Z,99.90
2019-06-26T10:15:30.570Z,99.90
2019-06-26T10:18:02.634Z,99.90
2019-06-26T10:20:34.772Z,99.90
2019-06-26T10:23:07.057Z,99.90
2019-06-26T10:25:39.131Z,99.90
2019-06-26T10:28:11.294Z,99.90
2019-06-26T10:30:43.313Z,99.90
2019-06-26T10:33:14.424Z,99.90
2019-06-26T10:35:45.377Z,99.90
2019-06-26T10:38:17.148Z,99.90
2019-06-26T10:40:49.147Z,99.90
2019-06-26T10:43:21.141Z,99.90
2019-06-26T10:45:51.982Z,99.90
2019-06-26T10:48:22.918Z,99.90
2019-06-26T10:50:58.561Z,99.90
2019-06-26T10:53:27.373Z,99.90
2019-06-26T10:55:59.467Z,99.90
2019-06-26T10:58:30.643Z,99.90
2019-06-26T11:01:01.541Z,99.90
2019-06-26T11:03:32.460Z,99.90
2019-06-26T11:06:03.283Z,99.90
2019-06-26T11:08:34.046Z,99.90
2019-06-26T11:11:05.007Z,99.90
2019-06-26T11:13:35.965Z,99.90
2019-06-26T11:16:06.881Z,99.90
2019-06-26T11:18:37.602Z,99.90
2019-06-26T11:21:08.385Z,99.90
2019-06-26T11:23:39.243Z,99.90
2019-06-26T11:26:10.047Z,99.90
2019-06-26T11:28:40.879Z,99.90
2019-06-26T11:31:11.849Z,99.90
2019-06-26T11:33:42.967Z,99.90
2019-06-26T11:36:14.841Z,99.90
2019-06-26T11:38:46.810Z,99.90
2019-06-26T11:41:18.806Z,99.90
2019-06-26T11:43:49.714Z,99.90
2019-06-26T11:46:21.649Z,99.90
2019-06-26T11:48:53.649Z,99.90
2019-06-26T11:51:25.769Z,99.90
2019-06-26T11:53:59.064Z,99.90
2019-06-26T11:56:31.273Z,99.90
2019-06-26T11:59:03.339Z,99.90
2019-06-26T12:01:34.295Z,99.80
2019-06-26T12:04:06.133Z,99.80
2019-06-26T12:06:38.125Z,99.20
2019-06-26T12:09:11.022Z,98.80
2019-06-26T12:11:42.937Z,99.20
2019-06-26T12:14:14.878Z,98.40
2019-06-26T12:16:46.642Z,97.80
2019-06-26T12:19:23.188Z,98.20
2019-06-26T12:21:52.925Z,97.50
2019-06-26T12:24:26.760Z,98.00
2019-06-26T12:26:58.720Z,98.20
2019-06-26T12:29:32.977Z,97.80
2019-06-26T12:32:04.831Z,98.20
2019-06-26T12:34:36.815Z,96.50
2019-06-26T12:37:08.817Z,96.60
2019-06-26T12:39:40.946Z,97.30
2019-06-26T12:42:12.885Z,96.60
2019-06-26T12:44:44.718Z,96.40
2019-06-26T12:47:16.765Z,96.50
2019-06-26T12:49:48.858Z,96.70
2019-06-26T12:52:21.784Z,96.20
2019-06-26T12:54:53.685Z,97.00
2019-06-26T12:57:26.083Z,96.10
2019-06-26T12:59:58.189Z,97.60
2019-06-26T13:02:30.065Z,97.60
2019-06-26T13:05:02.241Z,97.00
2019-06-26T13:07:34.310Z,97.10
2019-06-26T13:10:07.614Z,97.50
2019-06-26T13:12:40.006Z,96.40
2019-06-26T13:15:12.930Z,95.90
2019-06-26T13:17:44.758Z,95.40
2019-06-26T13:20:16.842Z,95.50
2019-06-26T13:22:48.930Z,96.00
2019-06-26T13:25:21.394Z,95.40
2019-06-26T13:27:53.548Z,95.40
2019-06-26T13:30:38.382Z,96.00
2019-06-26T13:33:10.321Z,96.40
2019-06-26T13:35:42.400Z,96.90
2019-06-26T13:38:14.583Z,97.20
2019-06-26T13:40:46.676Z,96.80
2019-06-26T13:43:18.768Z,96.80
2019-06-26T13:45:50.861Z,96.90
2019-06-26T13:48:22.953Z,97.20
2019-06-26T13:51:08.165Z,95.60
2019-06-26T13:53:28.558Z,95.90
2019-06-26T13:56:00.476Z,95.90
2019-06-26T13:58:33.529Z,95.70
2019-06-26T14:01:05.569Z,96.00
2019-06-26T14:03:37.419Z,95.90
2019-06-26T14:06:09.444Z,96.90
2019-06-26T14:08:41.585Z,97.80
2019-06-26T14:11:13.711Z,96.30
2019-06-26T14:13:46.437Z,96.50
2019-06-26T14:16:18.613Z,96.50
2019-06-26T14:18:50.630Z,96.30
2019-06-26T14:21:26.175Z,96.10
2019-06-26T14:23:56.350Z,96.10
2019-06-26T14:26:28.277Z,96.00
2019-06-26T14:29:00.237Z,96.60
2019-06-26T14:31:32.311Z,96.10
2019-06-26T14:34:04.461Z,95.90
2019-06-26T14:36:36.592Z,96.20
2019-06-26T14:39:08.794Z,96.10
2019-06-26T14:41:42.438Z,96.90
2019-06-26T14:44:14.300Z,96.50
2019-06-26T14:46:46.270Z,96.30
2019-06-26T14:49:18.199Z,96.30
2019-06-26T14:51:50.209Z,96.50
2019-06-26T14:54:22.125Z,95.50
2019-06-26T14:56:54.109Z,96.10
2019-06-26T14:59:26.138Z,96.00
2019-06-26T15:01:58.255Z,96.40
2019-06-26T15:04:30.591Z,96.40
2019-06-26T15:07:02.631Z,96.80
2019-06-26T15:09:34.722Z,95.80
2019-06-26T15:12:06.833Z,96.20
2019-06-26T15:14:39.691Z,96.10
2019-06-26T15:17:11.684Z,96.30
2019-06-26T15:19:43.607Z,96.90
2019-06-26T15:22:15.520Z,96.30
2019-06-26T15:24:47.603Z,96.50
2019-06-26T15:27:19.387Z,96.30
2019-06-26T15:29:51.790Z,96.50
2019-06-26T15:32:23.817Z,96.40
2019-06-26T15:34:55.810Z,96.40
2019-06-26T15:37:27.901Z,96.30
2019-06-26T15:39:59.930Z,96.30
2019-06-26T15:42:31.804Z,96.70
2019-06-26T15:45:05.054Z,96.20
2019-06-26T15:47:38.118Z,96.10
2019-06-26T15:50:11.129Z,96.50
2019-06-26T15:52:45.204Z,96.20
2019-06-26T15:55:17.407Z,96.90
2019-06-26T15:57:49.364Z,96.50
2019-06-26T16:00:21.928Z,95.60
2019-06-26T16:02:53.877Z,95.70
2019-06-26T16:05:25.981Z,96.30
2019-06-26T16:07:58.103Z,96.20
2019-06-26T16:10:34.318Z,95.80
2019-06-26T16:13:04.530Z,95.50
2019-06-26T16:15:37.076Z,96.40
2019-06-26T16:18:27.170Z,95.50
2019-06-26T16:20:59.341Z,96.10
2019-06-26T16:23:31.464Z,96.30
2019-06-26T16:26:03.563Z,96.50
2019-06-26T16:28:35.684Z,96.00
2019-06-26T16:31:07.789Z,96.00
2019-06-26T16:33:39.728Z,96.40
2019-06-26T16:36:11.920Z,96.10
2019-06-26T16:38:43.936Z,96.40
2019-06-26T16:41:16.789Z,96.20
2019-06-26T16:43:48.761Z,96.00
2019-06-26T16:46:20.863Z,95.60
2019-06-26T16:48:52.936Z,96.30
2019-06-26T16:51:25.073Z,96.60
2019-06-26T16:53:57.166Z,97.00
2019-06-26T16:56:29.219Z,96.00
2019-06-26T16:59:03.921Z,96.30
2019-06-26T17:01:43.603Z,96.70
2019-06-26T17:04:23.917Z,97.30
2019-06-26T17:07:09.249Z,96.50
2019-06-26T17:09:44.501Z,96.00
2019-06-26T17:12:16.622Z,96.00
2019-06-26T17:14:48.767Z,96.20
2019-06-26T17:17:20.845Z,96.30
2019-06-26T17:19:52.951Z,96.70
2019-06-26T17:22:24.965Z,96.80
2019-06-26T17:24:57.002Z,97.10
2019-06-26T17:27:29.407Z,97.20
2019-06-26T17:30:08.901Z,96.30
2019-06-26T17:32:48.357Z,96.80
2019-06-26T17:35:23.682Z,97.00
2019-06-26T17:38:00.479Z,97.30
2019-06-26T17:40:33.900Z,97.80
2019-06-26T17:43:12.756Z,97.00
2019-06-26T17:45:42.500Z,97.20
2019-06-26T17:48:17.245Z,97.30
2019-06-26T17:50:49.535Z,97.90
2019-06-26T17:53:23.916Z,97.50
2019-06-26T17:55:58.133Z,97.90
2019-06-26T17:58:37.921Z,98.20
2019-06-26T18:01:17.096Z,98.30
2019-06-26T18:03:51.039Z,98.10
2019-06-26T18:06:28.421Z,97.50
2019-06-26T18:09:03.432Z,97.80
2019-06-26T18:11:37.078Z,98.40
2019-06-26T18:14:09.353Z,98.50
2019-06-26T18:16:44.557Z,98.90
2019-06-26T18:19:18.483Z,99.00
2019-06-26T18:21:51.027Z,98.70
2019-06-26T18:24:28.540Z,98.80
2019-06-26T18:27:00.693Z,98.80
2019-06-26T18:29:32.959Z,98.80
2019-06-26T18:32:05.156Z,99.00
2019-06-26T18:34:38.123Z,99.60
2019-06-26T18:37:10.407Z,99.30
2019-06-26T18:39:43.366Z,99.90
2019-06-26T18:42:15.385Z,99.90
2019-06-26T18:44:47.384Z,99.90
2019-06-26T18:47:19.599Z,99.90
2019-06-26T18:49:51.803Z,99.90
2019-06-26T18:52:24.001Z,99.90
2019-06-26T18:54:55.943Z,99.90
2019-06-26T18:57:28.286Z,99.90
2019-06-26T19:00:00.209Z,99.90
2019-06-26T19:02:32.296Z,99.90
2019-06-26T19:05:04.718Z,99.90
2019-06-26T19:07:36.692Z,99.90
2019-06-26T19:10:10.482Z,99.90
2019-06-26T19:12:42.480Z,99.90
2019-06-26T19:15:14.818Z,99.90
2019-06-26T19:17:46.918Z,99.90
2019-06-26T19:20:20.245Z,99.90
2019-06-26T19:22:52.194Z,99.90
2019-06-26T19:25:24.139Z,99.90
2019-06-26T19:27:56.086Z,99.90
2019-06-26T19:30:28.594Z,99.90
2019-06-26T19:33:00.818Z,99.90
2019-06-26T19:35:35.982Z,99.90
2019-06-26T19:38:08.093Z,99.90
2019-06-26T19:40:40.150Z,99.90
2019-06-26T19:43:12.356Z,99.90
2019-06-26T19:45:44.516Z,99.90
2019-06-26T19:48:16.573Z,99.90
2019-06-26T19:50:48.752Z,99.90
2019-06-26T19:53:21.297Z,99.90
2019-06-26T19:55:56.986Z,99.90
2019-06-26T19:58:29.378Z,99.90
2019-06-26T20:01:01.337Z,99.90
2019-06-26T20:03:45.701Z,99.90
2019-06-26T20:06:17.903Z,99.90
2019-06-26T20:08:57.270Z,99.90
2019-06-26T20:11:26.844Z,99.90
2019-06-26T20:13:58.882Z,99.90
2019-06-26T20:16:30.893Z,99.90
2019-06-26T20:19:08.886Z,99.90
2019-06-26T20:21:44.832Z,99.90
2019-06-26T20:24:16.999Z,99.90
2019-06-26T20:26:50.360Z,99.90
2019-06-26T20:29:22.379Z,99.90
2019-06-26T20:31:54.341Z,99.90
2019-06-26T20:34:26.249Z,99.90
2019-06-26T20:36:58.133Z,99.90
2019-06-26T20:39:31.190Z,99.90
2019-06-26T20:42:03.180Z,99.90
2019-06-26T20:44:35.634Z,99.90
2019-06-26T20:47:07.544Z,99.90
2019-06-26T20:49:52.618Z,99.90
2019-06-26T20:52:17.016Z,99.90
2019-06-26T20:55:00.759Z,99.90
2019-06-26T20:57:22.965Z,99.90
2019-06-26T20:59:55.018Z,99.90
2019-06-26T21:02:27.218Z,99.90
2019-06-26T21:04:59.342Z,99.90
2019-06-26T21:07:31.412Z,99.90
2019-06-26T21:10:03.436Z,99.90
2019-06-26T21:12:35.613Z,99.90
2019-06-26T21:15:08.467Z,99.90
2019-06-26T21:17:41.279Z,99.90
2019-06-26T21:20:13.431Z,99.90
2019-06-26T21:22:45.378Z,99.90
2019-06-26T21:25:19.436Z,99.90
2019-06-26T21:27:51.691Z,99.90
2019-06-26T21:30:24.159Z,99.90
2019-06-26T21:32:56.474Z,99.90
2019-06-26T21:35:37.619Z,99.90
2019-06-26T21:38:04.308Z,99.90
2019-06-26T21:40:42.115Z,99.90
2019-06-26T21:43:14.157Z,99.90
2019-06-26T21:45:46.308Z,99.90
2019-06-26T21:48:18.446Z,99.90
2019-06-26T21:50:50.587Z,99.90
2019-06-26T21:53:22.755Z,99.90
2019-06-26T21:56:15.558Z,99.90
2019-06-26T21:59:05.098Z,99.90
2019-06-26T22:01:55.268Z,99.90
2019-06-26T22:04:44.674Z,99.90
2019-06-26T22:07:24.508Z,99.90
2019-06-26T22:09:58.268Z,99.90
2019-06-26T22:12:30.365Z,99.90
2019-06-26T22:15:02.240Z,99.90
2019-06-26T22:17:34.531Z,99.90
2019-06-26T22:20:12.363Z,99.90
2019-06-26T22:22:42.433Z,99.90
2019-06-26T22:25:16.292Z,99.90
2019-06-26T22:27:48.340Z,99.90
2019-06-26T22:30:20.673Z,99.90
2019-06-26T22:32:52.659Z,99.90
2019-06-26T22:35:25.636Z,99.90
2019-06-26T22:37:57.738Z,99.90
2019-06-26T22:40:30.088Z,99.90
2019-06-26T22:43:02.700Z,99.90
2019-06-26T22:45:34.991Z,99.90
2019-06-26T22:48:07.105Z,99.90
2019-06-26T22:50:39.020Z,99.90
2019-06-26T22:53:11.182Z,99.90
2019-06-26T22:55:43.401Z,99.90
2019-06-26T22:58:15.430Z,99.90
2019-06-26T23:00:47.940Z,99.90
2019-06-26T23:03:20.092Z,99.90
2019-06-26T23:05:52.120Z,99.90
2019-06-26T23:08:24.120Z,99.90
2019-06-26T23:10:56.394Z,99.90
2019-06-26T23:13:28.544Z,99.90
2019-06-26T23:16:00.713Z,99.90
2019-06-26T23:18:32.644Z,99.90
2019-06-26T23:21:04.739Z,99.90
2019-06-26T23:23:36.802Z,99.90
2019-06-26T23:26:23.066Z,99.90
2019-06-26T23:28:42.683Z,99.90
2019-06-26T23:31:14.690Z,99.90
2019-06-26T23:33:47.031Z,99.90
2019-06-26T23:36:19.203Z,99.90
2019-06-26T23:38:51.077Z,99.90
2019-06-26T23:41:23.105Z,99.90
2019-06-26T23:43:55.076Z,99.90
2019-06-26T23:46:26.946Z,99.90
2019-06-26T23:48:59.019Z,99.90
2019-06-26T23:51:31.270Z,99.90
2019-06-26T23:54:03.163Z,99.90
2019-06-26T23:56:40.558Z,99.90
2019-06-26T23:59:08.885Z,99.90
